Uitgeest, Netherlands
Current Conditions -  °F | °C
As of 1:25 AM on Thursday 18 Dec 2014 (Local Time) from EHAM Reporting Station
Broken Clouds Broken Clouds  
Wind Chill: 50°   Ceiling: 2400
Heat Index: 50°   Visibility: 6mi
Dew Point: 48°   Wind: 8mph
Humidity: 94%   Direction: 210°SSW
Pressure: 29.74"   Gusts: NA
Location:  52.53°N, 4.71°E
Report Text: EHAM 180025Z 21007KT 9999 FEW013 BKN024 10/09 Q1007 NOSIG
Loading
Personal Weather Stations






























Interactive Weather Map New forecast layout! Learn more

10-Day Weather Forecast

Advertisements
Track Severe Weather on mobile